Time;durP1;ratioP1;P1;durP2;ratioP2;P2;SDS_P1;SDS_P2;PMS_P1;PMS_P2;Temp;Humidity;BMP_temperature;BMP_pressure;BME280_temperature;BME280_humidity;BME280_pressure;Samples;Min_cycle;Max_cycle;Signal;HPM_P1;HPM_P2
2021/04/29 00:01:51;;;;;;;11.57;9.10;;;;;;;13.18;47.40;99474.41;5051755;28;20850;-64
2021/04/29 00:04:17;;;;;;;11.10;8.63;;;;;;;13.16;47.29;99468.38;5052740;28;20240;-64
2021/04/29 00:06:43;;;;;;;11.40;9.13;;;;;;;13.13;46.96;99467.75;5052443;28;20217;-65
2021/04/29 00:09:10;;;;;;;13.43;9.13;;;;;;;13.12;47.53;99472.28;5050466;28;20227;-65
2021/04/29 00:11:36;;;;;;;9.97;8.47;;;;;;;13.11;47.51;99459.88;5054216;28;20201;-65
2021/04/29 00:14:06;;;;;;;13.83;8.93;;;;;;;13.12;47.82;99466.91;5052068;28;20202;-65
2021/04/29 00:16:32;;;;;;;15.00;9.07;;;;;;;13.11;47.81;99459.03;5052917;28;20574;-66
2021/04/29 00:18:58;;;;;;;13.77;9.07;;;;;;;13.13;48.19;99465.09;5051518;28;20278;-65
2021/04/29 00:21:24;;;;;;;12.77;9.57;;;;;;;13.12;48.61;99453.56;5052291;28;20206;-64
2021/04/29 00:23:50;;;;;;;10.30;8.77;;;;;;;13.13;50.20;99460.59;5047934;28;20209;-65
2021/04/29 00:26:16;;;;;;;9.97;8.60;;;;;;;13.17;50.95;99456.69;5044707;28;20672;-66
2021/04/29 00:31:10;;;;;;;12.53;9.40;;;;;;;13.22;52.51;99456.25;5106528;28;20226;-68
2021/04/29 00:33:37;;;;;;;10.70;9.57;;;;;;;13.21;53.40;99462.59;5111800;28;20199;-68
2021/04/29 00:36:03;;;;;;;10.90;9.80;;;;;;;13.18;54.36;99450.34;5103662;28;20248;-67
2021/04/29 00:38:30;;;;;;;12.50;10.13;;;;;;;13.15;55.46;99453.31;5094952;28;20231;-68
2021/04/29 00:40:56;;;;;;;11.43;10.23;;;;;;;13.14;56.41;99454.25;5107108;28;20204;-67
2021/04/29 00:43:22;;;;;;;11.77;10.50;;;;;;;13.09;57.21;99453.84;5110228;28;20695;-68
2021/04/29 00:45:48;;;;;;;11.40;10.30;;;;;;;13.05;58.04;99451.59;5100855;28;20205;-69
2021/04/29 00:48:16;;;;;;;13.60;11.30;;;;;;;12.98;58.85;99451.31;5110418;28;20207;-68
2021/04/29 00:50:42;;;;;;;11.47;10.37;;;;;;;12.91;59.57;99452.84;5111929;28;20206;-68
2021/04/29 00:53:08;;;;;;;12.13;10.97;;;;;;;12.85;60.53;99456.13;5097424;28;20208;-69
2021/04/29 00:55:35;;;;;;;12.27;10.97;;;;;;;12.77;61.48;99454.13;5113173;28;20211;-70
2021/04/29 00:58:01;;;;;;;12.93;11.63;;;;;;;12.70;61.97;99450.34;5111315;28;20607;-69
2021/04/29 01:00:28;;;;;;;13.43;12.07;;;;;;;12.65;62.64;99443.72;5098439;28;20299;-70
2021/04/29 01:02:58;;;;;;;13.77;12.07;;;;;;;12.57;63.32;99455.09;5099280;28;20677;-71
2021/04/29 01:05:30;;;;;;;14.47;11.57;;;;;;;12.50;64.12;99452.16;5109505;28;20195;-71
2021/04/29 01:08:01;;;;;;;13.57;12.17;;;;;;;12.44;64.60;99449.19;5099748;28;20196;-71
2021/04/29 01:10:33;;;;;;;14.43;12.90;;;;;;;12.38;65.27;99445.22;5105824;28;20224;-70
2021/04/29 01:13:07;;;;;;;13.80;12.40;;;;;;;12.30;65.59;99447.75;5102710;28;20553;-70
2021/04/29 01:15:34;;;;;;;13.53;12.17;;;;;;;12.25;66.21;99447.31;5097539;28;20225;-69
2021/04/29 01:18:01;;;;;;;13.63;12.23;;;;;;;12.21;66.59;99450.38;5101866;28;20224;-69
2021/04/29 01:20:36;;;;;;;13.70;12.40;;;;;;;12.16;67.09;99445.47;5107638;28;20305;-70
2021/04/29 01:23:09;;;;;;;14.43;12.93;;;;;;;12.10;67.61;99443.34;5111485;28;20631;-69
2021/04/29 01:25:38;;;;;;;13.97;12.50;;;;;;;12.06;67.98;99441.91;5094866;28;20212;-70
2021/04/29 01:28:05;;;;;;;15.07;13.47;;;;;;;12.02;68.34;99445.84;5092096;28;20666;-70
2021/04/29 01:30:32;;;;;;;13.70;12.33;;;;;;;11.97;68.55;99432.94;5101837;28;20367;-70
2021/04/29 01:32:58;;;;;;;15.43;12.77;;;;;;;11.93;69.03;99431.50;5091269;28;20598;-70
2021/04/29 01:35:25;;;;;;;17.43;13.50;;;;;;;11.92;69.61;99440.47;5091492;28;20208;-70
2021/04/29 01:37:52;;;;;;;15.27;13.77;;;;;;;11.90;69.55;99425.59;5093199;28;20216;-71
2021/04/29 01:40:19;;;;;;;16.93;13.80;;;;;;;11.88;69.95;99432.88;5111360;28;20224;-70
2021/04/29 01:42:46;;;;;;;17.43;14.13;;;;;;;11.86;70.09;99432.16;5092559;28;20219;-70
2021/04/29 01:45:13;;;;;;;14.97;13.37;;;;;;;11.81;70.35;99421.91;5089135;28;20669;-70
2021/04/29 01:47:39;;;;;;;15.07;13.53;;;;;;;11.77;70.59;99413.34;5090219;28;20204;-70
2021/04/29 01:50:08;;;;;;;16.73;13.77;;;;;;;11.76;70.81;99426.81;5102597;28;20646;-70
2021/04/29 01:52:35;;;;;;;17.47;13.47;;;;;;;11.74;70.98;99418.91;5090512;28;20287;-70
2021/04/29 01:55:03;;;;;;;15.10;13.53;;;;;;;11.75;71.12;99428.59;5089935;28;20204;-70
2021/04/29 01:57:29;;;;;;;15.30;13.70;;;;;;;11.74;71.07;99426.91;5090357;28;20659;-70
2021/04/29 01:59:56;;;;;;;14.80;13.20;;;;;;;11.73;71.15;99422.53;5095385;28;20596;-70
2021/04/29 02:02:24;;;;;;;16.33;14.73;;;;;;;11.72;71.28;99428.84;5093149;28;20201;-71
2021/04/29 02:04:50;;;;;;;15.73;14.13;;;;;;;11.72;71.66;99422.69;5097607;28;20666;-70
2021/04/29 02:07:16;;;;;;;16.63;14.93;;;;;;;11.72;71.87;99417.34;5090571;28;20212;-70
2021/04/29 02:09:42;;;;;;;18.90;14.30;;;;;;;11.73;72.15;99413.69;5105945;28;20234;-70
2021/04/29 02:12:11;;;;;;;16.20;14.50;;;;;;;11.73;72.35;99419.88;5110456;28;20219;-71
2021/04/29 02:14:40;;;;;;;15.43;13.73;;;;;;;11.74;72.36;99416.22;5094927;28;20262;-70
2021/04/29 02:17:13;;;;;;;16.83;15.13;;;;;;;11.73;72.64;99405.69;5090813;28;20208;-70
2021/04/29 02:19:42;;;;;;;17.90;16.10;;;;;;;11.70;72.84;99406.81;5099199;28;20219;-70
2021/04/29 02:22:09;;;;;;;17.33;15.57;;;;;;;11.69;73.16;99407.78;5089909;28;20204;-70
2021/04/29 02:24:37;;;;;;;17.90;16.07;;;;;;;11.68;73.43;99411.41;5104207;28;20211;-70
2021/04/29 02:27:04;;;;;;;18.50;16.60;;;;;;;11.66;73.66;99416.03;5110258;28;20210;-70
2021/04/29 02:29:31;;;;;;;17.20;15.30;;;;;;;11.64;73.69;99411.84;5098552;28;20246;-70
2021/04/29 02:31:57;;;;;;;14.90;13.33;;;;;;;11.59;73.57;99411.41;5089933;28;20730;-70
2021/04/29 02:34:23;;;;;;;17.13;15.23;;;;;;;11.54;73.74;99411.78;5094896;28;20196;-69
2021/04/29 02:36:51;;;;;;;17.27;15.50;;;;;;;11.53;73.93;99410.09;5111367;28;20206;-69
2021/04/29 02:39:17;;;;;;;19.10;16.37;;;;;;;11.49;73.92;99411.34;5094581;28;20277;-69
2021/04/29 02:41:44;;;;;;;18.80;16.10;;;;;;;11.47;74.41;99407.97;5089443;28;20204;-70
2021/04/29 02:44:10;;;;;;;18.23;16.33;;;;;;;11.45;74.52;99408.13;5102874;28;20211;-69
2021/04/29 02:46:39;;;;;;;21.73;16.97;;;;;;;11.43;74.73;99407.41;5104082;28;20204;-69
2021/04/29 02:49:07;;;;;;;19.00;16.97;;;;;;;11.41;74.90;99405.84;5090061;28;20236;-69
2021/04/29 02:51:36;;;;;;;20.27;16.23;;;;;;;11.39;74.93;99402.47;5089190;28;20203;-68
2021/04/29 02:54:06;;;;;;;19.67;16.37;;;;;;;11.38;74.86;99403.44;5090565;28;20572;-69
2021/04/29 02:56:33;;;;;;;20.97;17.10;;;;;;;11.35;74.84;99407.22;5094439;28;20701;-69
2021/04/29 02:59:00;;;;;;;19.13;16.00;;;;;;;11.34;74.80;99399.34;5112882;28;20227;-70
2021/04/29 03:01:26;;;;;;;18.23;16.40;;;;;;;11.32;75.05;99404.81;5103666;28;20210;-69
2021/04/29 03:03:53;;;;;;;20.30;17.47;;;;;;;11.31;75.03;99396.94;5114186;28;20559;-69
2021/04/29 03:06:21;;;;;;;20.87;17.47;;;;;;;11.31;75.18;99399.59;5095172;28;20203;-70
2021/04/29 03:08:47;;;;;;;19.03;16.97;;;;;;;11.29;75.15;99399.72;5105950;28;20317;-69
2021/04/29 03:11:14;;;;;;;17.20;15.53;;;;;;;11.29;75.16;99396.22;5113005;28;20253;-70
2021/04/29 03:13:40;;;;;;;17.87;15.67;;;;;;;11.28;74.88;99398.06;5103600;28;20202;-69
2021/04/29 03:16:06;;;;;;;18.43;16.43;;;;;;;11.28;75.18;99398.06;5093292;28;20673;-70
2021/04/29 03:18:32;;;;;;;19.53;17.47;;;;;;;11.30;75.25;99403.22;5100990;28;20224;-69
2021/04/29 03:20:58;;;;;;;19.83;17.73;;;;;;;11.31;74.97;99396.94;5112647;28;20709;-68
2021/04/29 03:23:24;;;;;;;25.47;20.10;;;;;;;11.32;75.32;99398.63;5113741;28;20207;-68
2021/04/29 03:25:50;;;;;;;24.73;19.03;;;;;;;11.33;75.28;99405.63;5114378;28;20261;-69
2021/04/29 03:28:17;;;;;;;20.70;17.20;;;;;;;11.33;75.28;99394.97;5113650;28;20570;-70
2021/04/29 03:30:43;;;;;;;19.87;17.73;;;;;;;11.33;75.33;99401.16;5103345;28;20212;-70
2021/04/29 03:33:10;;;;;;;19.73;17.07;;;;;;;11.33;75.34;99394.97;5094793;28;20196;-69
2021/04/29 03:35:37;;;;;;;20.63;18.47;;;;;;;11.33;75.21;99394.97;5093448;28;20204;-70
2021/04/29 03:38:03;;;;;;;21.77;18.63;;;;;;;11.33;75.57;99389.66;5107664;28;20228;-70
2021/04/29 03:40:30;;;;;;;20.77;18.57;;;;;;;11.33;75.54;99394.97;5106526;28;20215;-69
2021/04/29 03:42:56;;;;;;;23.27;19.87;;;;;;;11.32;75.58;99394.13;5100379;28;20665;-69
2021/04/29 03:45:24;;;;;;;26.53;21.33;;;;;;;11.33;75.63;99389.66;5113774;28;20204;-69
2021/04/29 03:47:50;;;;;;;29.17;21.53;;;;;;;11.34;75.68;99391.34;5107118;28;20250;-69
2021/04/29 03:50:16;;;;;;;30.30;22.30;;;;;;;11.34;76.26;99384.19;5102911;28;20234;-69
2021/04/29 03:52:42;;;;;;;26.37;22.37;;;;;;;11.33;76.25;99387.84;5103108;28;20212;-69
2021/04/29 03:55:09;;;;;;;27.23;23.27;;;;;;;11.31;76.04;99386.28;5093743;28;20215;-69
2021/04/29 03:57:36;;;;;;;26.47;22.87;;;;;;;11.28;76.27;99394.56;5093431;28;20232;-69
2021/04/29 04:00:02;;;;;;;28.90;22.60;;;;;;;11.26;76.72;99385.84;5107107;28;20231;-68
2021/04/29 04:02:29;;;;;;;23.60;20.10;;;;;;;11.23;76.79;99386.94;5099548;28;20200;-69
2021/04/29 04:04:55;;;;;;;27.60;21.30;;;;;;;11.21;76.56;99386.22;5093343;28;20200;-68
2021/04/29 04:07:21;;;;;;;25.17;20.33;;;;;;;11.20;76.55;99391.69;5107741;28;20211;-68
2021/04/29 04:09:47;;;;;;;24.30;20.23;;;;;;;11.19;76.75;99392.66;5098669;28;20716;-68
2021/04/29 04:12:13;;;;;;;21.97;18.77;;;;;;;11.18;76.43;99396.31;5111786;28;20216;-68
2021/04/29 04:14:39;;;;;;;25.43;20.97;;;;;;;11.15;76.56;99392.06;5099007;28;20278;-68
2021/04/29 04:17:05;;;;;;;24.57;20.97;;;;;;;11.15;76.65;99400.06;5112875;28;20211;-67
2021/04/29 04:19:31;;;;;;;27.70;22.03;;;;;;;11.14;76.19;99390.38;5098218;28;20239;-68
2021/04/29 04:21:58;;;;;;;23.70;20.23;;;;;;;11.12;76.33;99393.19;5112883;28;20226;-68
2021/04/29 04:24:24;;;;;;;24.60;20.87;;;;;;;11.12;76.32;99384.34;5111836;28;20211;-68
2021/04/29 04:26:50;;;;;;;26.97;21.40;;;;;;;11.12;76.17;99387.00;5099112;28;20607;-68
2021/04/29 04:29:16;;;;;;;31.60;24.03;;;;;;;11.11;76.01;99395.97;5111783;28;20251;-68
2021/04/29 04:31:42;;;;;;;32.37;25.23;;;;;;;11.12;75.96;99385.19;5097777;28;20203;-68
2021/04/29 04:34:08;;;;;;;28.30;23.50;;;;;;;11.13;76.14;99386.88;5096362;28;20203;-68
2021/04/29 04:36:35;;;;;;;28.43;23.17;;;;;;;11.13;76.10;99389.53;5098399;28;20276;-69
2021/04/29 04:39:02;;;;;;;30.50;23.80;;;;;;;11.11;76.29;99388.81;5098147;28;20281;-68
2021/04/29 04:41:28;;;;;;;31.97;23.17;;;;;;;11.10;76.65;99387.16;5092701;28;20207;-67
2021/04/29 04:43:54;;;;;;;29.93;24.13;;;;;;;11.08;76.60;99380.28;5090347;28;20249;-68
2021/04/29 04:46:20;;;;;;;28.37;22.63;;;;;;;11.06;76.41;99382.22;5097033;28;20248;-69
2021/04/29 04:48:46;;;;;;;27.50;23.10;;;;;;;11.05;76.70;99388.53;5113033;28;20227;-68
2021/04/29 04:51:12;;;;;;;29.63;24.53;;;;;;;11.04;77.07;99389.50;5094791;28;20272;-68
2021/04/29 04:53:39;;;;;;;29.03;24.17;;;;;;;11.03;77.22;99388.66;5092090;28;20211;-68
2021/04/29 04:56:05;;;;;;;29.73;23.00;;;;;;;11.01;76.98;99387.94;5092131;27;20196;-68
2021/04/29 04:58:31;;;;;;;29.47;24.27;;;;;;;10.98;76.96;99385.53;5094110;27;20935;-68
2021/04/29 05:00:57;;;;;;;33.47;24.43;;;;;;;10.98;77.00;99400.66;5091671;28;20216;-67
2021/04/29 05:03:23;;;;;;;35.77;27.47;;;;;;;10.97;77.58;99402.47;5090664;28;20692;-68
2021/04/29 05:05:49;;;;;;;33.37;24.67;;;;;;;10.98;77.44;99401.50;5091791;28;20204;-68
2021/04/29 05:08:16;;;;;;;31.40;24.63;;;;;;;10.98;77.64;99396.19;5099592;28;20564;-68
2021/04/29 05:10:43;;;;;;;32.63;24.90;;;;;;;10.99;77.82;99400.53;5098249;28;20204;-68
2021/04/29 05:13:09;;;;;;;31.50;26.33;;;;;;;10.99;77.63;99397.88;5096340;28;20196;-68
2021/04/29 05:15:36;;;;;;;36.50;26.03;;;;;;;10.98;77.58;99398.00;5100845;28;20903;-68
2021/04/29 05:18:03;;;;;;;36.07;27.00;;;;;;;10.96;77.93;99398.13;5108458;28;20256;-68
2021/04/29 05:20:30;;;;;;;28.23;24.77;;;;;;;10.94;77.56;99396.56;5111238;28;20204;-68
2021/04/29 05:22:56;;;;;;;34.30;26.27;;;;;;;10.90;78.14;99395.16;5103497;28;20210;-68
2021/04/29 05:25:23;;;;;;;36.80;26.13;;;;;;;10.87;78.00;99409.56;5091231;28;20200;-68
2021/04/29 05:27:50;;;;;;;34.40;27.57;;;;;;;10.85;78.27;99406.19;5090811;28;20200;-68
2021/04/29 05:30:16;;;;;;;31.83;26.10;;;;;;;10.81;78.40;99404.75;5091237;28;20228;-68
2021/04/29 05:32:42;;;;;;;35.63;26.30;;;;;;;10.79;78.15;99412.03;5090549;28;20241;-70
2021/04/29 05:35:10;;;;;;;33.60;25.20;;;;;;;10.75;78.36;99413.25;5098968;28;20207;-69
2021/04/29 05:37:36;;;;;;;34.50;24.50;;;;;;;10.69;78.66;99403.97;5093967;28;20621;-69
2021/04/29 05:40:01;;;;;;;33.30;23.83;;;;;;;10.64;78.89;99411.50;5103154;28;20235;-69
2021/04/29 05:42:27;;;;;;;34.30;25.27;;;;;;;10.58;78.62;99403.16;5090277;28;20204;-69
2021/04/29 05:44:54;;;;;;;31.00;25.10;;;;;;;10.55;78.92;99406.09;5089891;28;20675;-70
2021/04/29 05:47:20;;;;;;;35.23;26.37;;;;;;;10.51;78.55;99409.97;5104726;28;20222;-69
2021/04/29 05:49:47;;;;;;;34.80;26.57;;;;;;;10.48;79.39;99396.91;5111104;28;20310;-69
2021/04/29 05:52:13;;;;;;;35.87;26.83;;;;;;;10.47;79.11;99400.56;5110824;28;20204;-69
2021/04/29 05:54:39;;;;;;;41.60;28.97;;;;;;;10.44;79.00;99398.97;5109975;28;20570;-69
2021/04/29 05:57:06;;;;;;;39.37;29.23;;;;;;;10.43;79.83;99398.13;5102466;28;20208;-69
2021/04/29 05:59:32;;;;;;;39.73;27.87;;;;;;;10.41;79.25;99399.22;5104844;28;20227;-70
2021/04/29 06:01:59;;;;;;;35.40;27.77;;;;;;;10.39;79.70;99402.00;5097864;28;20215;-69
2021/04/29 06:04:25;;;;;;;31.10;24.47;;;;;;;10.38;79.69;99402.16;5108486;28;20203;-69
2021/04/29 06:06:51;;;;;;;32.63;24.43;;;;;;;10.34;79.69;99401.56;5101347;28;20294;-70
2021/04/29 06:09:17;;;;;;;31.10;23.73;;;;;;;10.32;79.67;99400.00;5094368;28;20642;-69
2021/04/29 06:11:44;;;;;;;28.60;21.53;;;;;;;10.28;80.25;99412.72;5098034;28;20225;-69
2021/04/29 06:14:12;;;;;;;29.27;22.00;;;;;;;10.22;79.73;99413.19;5096125;28;20254;-69
2021/04/29 06:16:38;;;;;;;28.93;22.90;;;;;;;10.16;79.92;99413.69;5091244;28;20204;-68
2021/04/29 06:19:05;;;;;;;28.80;23.47;;;;;;;10.14;79.83;99415.63;5090847;28;20649;-69
2021/04/29 06:21:32;;;;;;;28.90;22.73;;;;;;;10.11;80.22;99407.88;5089779;28;20269;-68
2021/04/29 06:23:58;;;;;;;32.97;23.47;;;;;;;10.08;79.76;99414.28;5102084;28;20615;-69
2021/04/29 06:26:24;;;;;;;33.47;25.07;;;;;;;10.05;79.41;99417.19;5093550;28;21135;-68
2021/04/29 06:31:19;;;;;;;32.43;24.73;;;;;;;10.02;80.13;99419.28;5130495;22;20292;-74
2021/04/29 06:33:45;;;;;;;34.87;25.70;;;;;;;10.02;80.02;99420.13;5110763;28;20200;-73
2021/04/29 06:36:12;;;;;;;34.93;26.50;;;;;;;10.03;80.08;99426.28;5110825;28;20210;-73
2021/04/29 06:38:38;;;;;;;31.47;25.53;;;;;;;10.04;79.63;99419.97;5110122;28;20231;-73
2021/04/29 06:41:04;;;;;;;32.63;25.80;;;;;;;10.05;80.49;99413.69;5100308;28;20215;-72
2021/04/29 06:43:30;;;;;;;33.43;25.77;;;;;;;10.05;80.62;99422.50;5094972;28;20590;-73
2021/04/29 06:45:56;;;;;;;31.00;23.87;;;;;;;10.04;80.58;99414.66;5100212;28;20195;-73
2021/04/29 06:48:22;;;;;;;29.43;23.27;;;;;;;10.01;80.03;99410.47;5105596;28;20721;-75
2021/04/29 06:50:49;;;;;;;27.93;21.63;;;;;;;9.98;80.20;99418.69;5102200;28;20231;-73
2021/04/29 06:53:16;;;;;;;30.57;22.83;;;;;;;9.94;80.04;99424.34;5099929;28;20211;-74
2021/04/29 06:55:42;;;;;;;30.67;22.83;;;;;;;9.89;80.24;99415.88;5103346;28;20211;-73
2021/04/29 06:58:09;;;;;;;30.90;23.37;;;;;;;9.85;80.43;99423.28;5095933;28;20238;-74
2021/04/29 07:00:35;;;;;;;32.40;24.37;;;;;;;9.81;80.29;99415.69;5097002;28;20238;-74
2021/04/29 07:03:01;;;;;;;33.53;24.07;;;;;;;9.81;80.66;99418.34;5106818;28;20234;-75
2021/04/29 07:05:28;;;;;;;31.80;24.93;;;;;;;9.81;80.76;99418.34;5093723;28;20214;-75
2021/04/29 07:07:54;;;;;;;32.87;25.27;;;;;;;9.81;80.75;99423.66;5097381;28;20227;-75
2021/04/29 07:10:23;;;;;;;31.47;24.33;;;;;;;9.79;80.08;99409.63;5097614;28;20227;-75
2021/04/29 07:12:49;;;;;;;32.83;25.13;;;;;;;9.75;80.05;99424.97;5101190;28;20207;-74
2021/04/29 07:15:16;;;;;;;30.83;24.33;;;;;;;9.72;80.44;99426.06;5094224;28;20204;-74
2021/04/29 07:17:42;;;;;;;27.77;22.77;;;;;;;9.71;80.13;99426.19;5091907;28;20257;-74
2021/04/29 07:20:10;;;;;;;31.13;23.87;;;;;;;9.68;80.19;99421.94;5096164;28;20231;-74
2021/04/29 07:22:36;;;;;;;27.63;23.07;;;;;;;9.67;80.46;99419.44;5092074;28;20203;-74
2021/04/29 07:25:03;;;;;;;29.07;22.87;;;;;;;9.66;80.31;99420.41;5097960;28;20250;-76
2021/04/29 07:27:30;;;;;;;31.30;23.27;;;;;;;9.65;80.88;99430.19;5100213;28;20200;-74
2021/04/29 07:29:56;;;;;;;29.73;23.23;;;;;;;9.65;80.95;99430.19;5096077;28;20592;-74
2021/04/29 07:32:22;;;;;;;31.73;23.33;;;;;;;9.63;80.32;99421.50;5091836;28;20221;-73
2021/04/29 07:34:48;;;;;;;29.20;23.43;;;;;;;9.65;81.12;99435.50;5092631;28;20227;-72
2021/04/29 07:37:14;;;;;;;28.57;23.73;;;;;;;9.67;80.55;99433.53;5093004;28;20205;-73
2021/04/29 07:39:40;;;;;;;33.50;25.33;;;;;;;9.71;80.33;99440.31;5092472;28;20231;-73
2021/04/29 07:42:07;;;;;;;30.07;23.67;;;;;;;9.74;80.45;99431.25;5091322;28;20669;-73
2021/04/29 07:44:34;;;;;;;31.67;25.10;;;;;;;9.79;80.88;99433.56;5094997;28;20203;-73
2021/04/29 07:47:00;;;;;;;29.63;24.63;;;;;;;9.81;80.65;99434.28;5094834;28;20689;-73
2021/04/29 07:49:26;;;;;;;31.00;24.93;;;;;;;9.84;80.73;99436.72;5097782;28;20220;-75
2021/04/29 07:51:54;;;;;;;31.73;24.67;;;;;;;9.88;80.53;99432.81;5095026;28;20204;-73
2021/04/29 07:54:20;;;;;;;31.97;24.07;;;;;;;9.92;81.27;99435.13;5093336;28;20204;-73
2021/04/29 07:56:46;;;;;;;32.30;23.83;;;;;;;9.95;80.72;99432.22;5095879;28;20268;-73
2021/04/29 07:59:12;;;;;;;27.20;23.20;;;;;;;9.98;81.05;99434.63;5095033;28;20220;-73
2021/04/29 08:01:39;;;;;;;29.87;24.03;;;;;;;10.01;80.69;99438.88;5094611;28;20586;-71
2021/04/29 08:04:05;;;;;;;31.50;24.93;;;;;;;10.02;80.84;99436.09;5095381;28;20208;-73
2021/04/29 08:06:31;;;;;;;31.03;25.07;;;;;;;10.05;80.77;99442.94;5096504;28;20269;-73
2021/04/29 08:08:58;;;;;;;30.57;24.30;;;;;;;10.06;80.53;99440.16;5093097;28;20207;-74
2021/04/29 08:11:24;;;;;;;28.63;24.03;;;;;;;10.09;80.73;99447.06;5098491;28;20576;-73
2021/04/29 08:13:50;;;;;;;32.80;24.63;;;;;;;10.11;80.75;99439.81;5096382;28;20606;-73
2021/04/29 08:16:17;;;;;;;33.47;25.73;;;;;;;10.12;80.07;99438.84;5093831;28;20220;-73
2021/04/29 08:18:44;;;;;;;30.63;24.60;;;;;;;10.13;80.44;99440.53;5091342;28;20235;-73
2021/04/29 08:21:10;;;;;;;31.57;24.37;;;;;;;10.15;80.28;99435.94;5093558;28;20224;-73
2021/04/29 08:23:37;;;;;;;30.03;24.20;;;;;;;10.18;80.11;99441.00;5099513;27;20189;-77
2021/04/29 08:26:03;;;;;;;34.30;26.23;;;;;;;10.22;80.30;99437.16;5094200;28;20283;-78
2021/04/29 08:28:30;;;;;;;33.33;26.30;;;;;;;10.26;80.18;99438.59;5097203;27;20200;-74
2021/04/29 08:30:56;;;;;;;31.80;24.90;;;;;;;10.27;80.36;99421.66;5093072;28;20319;-74
2021/04/29 08:33:22;;;;;;;35.97;27.40;;;;;;;10.27;80.30;99416.34;5095237;28;20604;-74
2021/04/29 08:35:49;;;;;;;34.50;27.90;;;;;;;10.30;80.15;99423.22;5092701;28;20220;-74
2021/04/29 08:38:16;;;;;;;34.30;27.03;;;;;;;10.31;79.86;99419.59;5092251;28;20823;-73
2021/04/29 08:40:42;;;;;;;33.97;26.60;;;;;;;10.33;80.66;99431.81;5094351;28;20228;-74
2021/04/29 08:43:08;;;;;;;37.03;28.20;;;;;;;10.36;80.58;99426.25;5107992;28;20200;-72
2021/04/29 08:45:34;;;;;;;36.73;28.13;;;;;;;10.43;80.22;99437.22;5103210;28;20206;-74
2021/04/29 08:48:00;;;;;;;36.87;29.00;;;;;;;10.48;80.66;99435.03;5106896;28;20206;-76
2021/04/29 08:50:28;;;;;;;38.63;29.63;;;;;;;10.53;80.65;99437.31;5103962;28;20235;-76
2021/04/29 08:52:55;;;;;;;39.27;28.77;;;;;;;10.60;80.95;99447.31;5104692;28;20214;-76
2021/04/29 08:55:23;;;;;;;39.67;29.57;;;;;;;10.67;81.29;99450.34;5097125;28;20212;-75
2021/04/29 08:57:49;;;;;;;43.23;31.80;;;;;;;10.72;80.98;99451.66;5112397;28;20581;-75
2021/04/29 09:00:20;;;;;;;43.87;31.17;;;;;;;10.82;81.23;99465.03;5109855;28;20285;-75
2021/04/29 09:02:46;;;;;;;42.63;31.07;;;;;;;10.87;80.99;99456.69;5103083;28;20213;-75
2021/04/29 09:05:15;;;;;;;49.10;36.33;;;;;;;10.94;81.34;99464.00;5110353;28;20204;-75
2021/04/29 09:07:52;;;;;;;46.83;33.90;;;;;;;10.99;81.30;99467.13;5098394;28;20208;-74
2021/04/29 09:10:23;;;;;;;45.97;33.03;;;;;;;11.00;80.64;99458.16;5105498;27;20226;-74
2021/04/29 09:12:49;;;;;;;46.40;34.07;;;;;;;11.01;80.65;99459.88;5108328;28;20208;-74
2021/04/29 09:15:25;;;;;;;44.00;31.80;;;;;;;11.06;81.06;99456.81;5106378;28;20277;-74
2021/04/29 09:18:03;;;;;;;44.30;31.77;;;;;;;11.11;80.89;99454.59;5099344;28;20672;-74
2021/04/29 09:20:28;;;;;;;45.47;33.53;;;;;;;11.18;81.09;99444.28;5111971;28;20229;-75
2021/04/29 09:22:59;;;;;;;43.93;31.83;;;;;;;11.24;80.97;99449.09;5100016;27;20299;-74
2021/04/29 09:25:26;;;;;;;45.30;32.97;;;;;;;11.29;80.90;99452.19;5097626;28;20205;-74
2021/04/29 09:27:53;;;;;;;45.20;32.80;;;;;;;11.35;81.17;99451.69;5102131;27;20212;-72
2021/04/29 09:30:23;;;;;;;46.77;33.57;;;;;;;11.44;81.34;99448.22;5095363;28;20236;-73
2021/04/29 09:32:49;;;;;;;44.43;32.47;;;;;;;11.54;81.42;99449.13;5093579;28;20208;-73
2021/04/29 09:35:18;;;;;;;39.10;29.00;;;;;;;11.64;80.90;99450.03;5100361;28;20256;-73
2021/04/29 09:37:45;;;;;;;46.13;32.53;;;;;;;11.72;81.32;99446.69;5099309;28;20658;-73
2021/04/29 09:40:20;;;;;;;40.47;28.60;;;;;;;11.84;81.19;99450.97;5100409;28;20220;-71
2021/04/29 09:42:48;;;;;;;37.67;28.87;;;;;;;11.94;81.14;99446.53;5098731;28;20617;-71
2021/04/29 09:45:19;;;;;;;38.60;27.67;;;;;;;12.03;80.77;99445.69;5104901;28;20204;-71
2021/04/29 09:48:00;;;;;;;36.93;27.97;;;;;;;12.11;80.47;99439.69;5099079;28;20206;-71
2021/04/29 09:50:29;;;;;;;33.20;27.27;;;;;;;12.15;80.27;99436.63;5096853;28;20223;-70
2021/04/29 09:53:00;;;;;;;36.83;27.63;;;;;;;12.21;80.21;99445.91;5097865;28;20647;-72
2021/04/29 09:55:28;;;;;;;34.93;25.40;;;;;;;12.30;80.23;99437.09;5099955;28;20199;-71
2021/04/29 09:58:11;;;;;;;32.23;27.07;;;;;;;12.40;79.96;99432.59;5100614;28;20669;-71
2021/04/29 10:00:38;;;;;;;29.90;24.60;;;;;;;12.52;79.92;99438.66;5098296;28;20361;-72
2021/04/29 10:03:05;;;;;;;26.50;22.33;;;;;;;12.60;79.57;99437.94;5100770;28;20678;-71
2021/04/29 10:05:37;;;;;;;23.90;21.30;;;;;;;12.64;78.95;99439.38;5099438;28;20574;-71
2021/04/29 10:08:08;;;;;;;26.60;21.93;;;;;;;12.67;78.86;99437.28;5098433;28;20227;-75
2021/04/29 10:10:36;;;;;;;25.83;21.70;;;;;;;12.72;78.54;99440.34;5101081;28;20228;-71
2021/04/29 10:13:04;;;;;;;24.83;22.17;;;;;;;12.77;78.42;99443.44;5108691;28;20214;-73
2021/04/29 10:15:35;;;;;;;28.07;23.97;;;;;;;12.85;78.66;99437.41;5102624;28;20558;-74
2021/04/29 10:18:01;;;;;;;22.70;20.30;;;;;;;12.97;78.59;99432.75;5096694;28;20216;-71
2021/04/29 10:20:30;;;;;;;27.87;24.27;;;;;;;13.05;78.92;99436.41;5093926;28;20220;-71
2021/04/29 10:22:57;;;;;;;25.27;21.00;;;;;;;13.15;78.44;99431.94;5102126;28;20206;-71
2021/04/29 10:25:27;;;;;;;22.80;20.40;;;;;;;13.23;78.50;99428.53;5094243;28;20219;-72
2021/04/29 10:27:55;;;;;;;21.53;19.43;;;;;;;13.34;78.32;99417.66;5096498;28;20214;-70
2021/04/29 10:30:31;;;;;;;21.33;18.97;;;;;;;13.49;78.16;99410.03;5093242;28;20232;-70
2021/04/29 10:32:58;;;;;;;20.13;18.13;;;;;;;13.63;78.01;99404.19;5092696;28;20195;-70
2021/04/29 10:35:27;;;;;;;22.67;20.37;;;;;;;13.77;77.30;99408.25;5091399;28;20215;-71
2021/04/29 10:37:54;;;;;;;19.70;17.80;;;;;;;13.86;77.10;99408.19;5093696;28;20218;-69
2021/04/29 10:40:31;;;;;;;19.27;17.23;;;;;;;13.96;76.28;99396.59;5089824;28;20605;-71
2021/04/29 10:42:57;;;;;;;18.33;16.53;;;;;;;14.04;75.74;99392.19;5092682;28;20212;-69
2021/04/29 10:45:24;;;;;;;20.63;18.50;;;;;;;14.11;75.11;99390.59;5093883;28;20577;-67
2021/04/29 10:47:50;;;;;;;19.23;17.27;;;;;;;14.17;74.18;99392.66;5095590;28;20211;-67
2021/04/29 10:50:19;;;;;;;20.07;17.93;;;;;;;14.19;73.03;99392.50;5092037;28;20731;-69
2021/04/29 10:52:49;;;;;;;19.53;17.53;;;;;;;14.20;72.22;99391.50;5094637;28;20199;-69
2021/04/29 10:55:23;;;;;;;20.00;18.10;;;;;;;14.24;71.82;99391.06;5092379;28;20238;-70
2021/04/29 10:57:49;;;;;;;20.97;18.47;;;;;;;14.34;70.97;99390.16;5097353;28;20294;-69
2021/04/29 11:00:16;;;;;;;19.87;17.77;;;;;;;14.39;70.90;99386.03;5094737;28;20238;-70
2021/04/29 11:02:42;;;;;;;20.73;18.53;;;;;;;14.50;70.26;99379.66;5095779;28;21634;-71
2021/04/29 11:05:23;;;;;;;18.97;16.43;;;;;;;14.64;70.17;99372.91;5098989;28;20253;-70
2021/04/29 11:07:49;;;;;;;18.90;17.00;;;;;;;14.73;69.26;99369.28;5098915;28;20202;-69
2021/04/29 11:10:17;;;;;;;17.03;15.20;;;;;;;14.80;68.25;99373.03;5099537;28;20219;-71
2021/04/29 11:12:46;;;;;;;17.13;15.03;;;;;;;14.81;66.90;99369.38;5099228;28;20233;-71
2021/04/29 11:15:20;;;;;;;16.07;14.10;;;;;;;14.82;66.50;99353.13;5098402;28;20214;-72
2021/04/29 11:17:46;;;;;;;14.83;13.37;;;;;;;14.85;65.42;99360.03;5101189;28;20200;-69
2021/04/29 11:20:13;;;;;;;15.93;14.43;;;;;;;14.89;65.22;99353.34;5095621;28;20278;-70
2021/04/29 11:22:44;;;;;;;14.07;12.70;;;;;;;14.96;64.55;99354.41;5096920;28;20208;-70
2021/04/29 11:25:11;;;;;;;13.87;12.57;;;;;;;15.07;64.00;99347.94;5094131;28;20264;-70